CheckWX is a tool to help pilots better visualize weather data.  It is not intended as a substitute for an official pre-flight weather briefing.

20:42:22 UTC

YTNK METAR
Tennant Creek Airport
Tennant Creek, Australia
Current

42 mins ago

YTNK 112000Z AUTO 13012KT 9999 // NCD 13/01 Q1020
Observed
Jul-11 @ 20:00 UTC
Wind
  • 130° at 12 KTS
Visibility
10,000+ meters
Flight Rules
VFR
Cloud Levels
  • Clear skies
Temperature
13°C / 55°F
Dewpoint
C / 34°F
Humidity
44%
Altimeter
30.12" Hg
Pressure
1019.92 hPa
Previous

2 hours ago

YTNK 111900Z AUTO 13014KT 9999 // NCD 14/02 Q1020
Observed
Jul-11 @ 19:00 UTC
Wind
  • 130° at 14 KTS
Visibility
10,000+ meters
Flight Rules
VFR
Cloud Levels
  • Clear skies
Temperature
14°C / 57°F
Dewpoint
C / 36°F
Humidity
44%
Altimeter
30.12" Hg
Pressure
1019.92 hPa
Previous

3 hours ago

YTNK 111800Z AUTO 13011KT 9999 // NCD 15/02 Q1019
Observed
Jul-11 @ 18:00 UTC
Wind
  • 130° at 11 KTS
Visibility
10,000+ meters
Flight Rules
VFR
Cloud Levels
  • Clear skies
Temperature
15°C / 59°F
Dewpoint
C / 36°F
Humidity
42%
Altimeter
30.09" Hg
Pressure
1018.92 hPa